aviador You're here:

K1YT Decoded Metar

in
Report Time2017-08-20 12:58:00
UTC Time2017-08-20 13:40:43
Flight Rules vfr VFR
Wind110° at 09 kt
W.Rank110° ranks 1
Current wind is above 110° avg. (6.1)
Visibility9999 m
Phenomena:N/A
Clouds:N/A
Expected CloudBase > 4,800 ft AGL from Temp-Dew spread
CeilingNone
Temp15°C
Dew Point03°C (45% RH)
AAT10.3°C
QNH1018 hPa
Raw Report
METAR K1YT 201258Z AUTO 11009KT 10SM CLR 15/03 A3005 RMK AO2 SLPNO
T01450028 $=

Extra information for K1YT:More info

Social comments